sensor_id;sensor_type;location;lat;lon;timestamp;P1;durP1;ratioP1;P2;durP2;ratioP2
27187;SDS011;14708;50.872;5.306;2023-07-30T00:00:43;3.00;;;1.88;;
27187;SDS011;14708;50.872;5.306;2023-07-30T00:03:08;2.85;;;2.22;;
27187;SDS011;14708;50.872;5.306;2023-07-30T00:05:34;2.00;;;1.80;;
27187;SDS011;14708;50.872;5.306;2023-07-30T00:07:59;2.42;;;1.80;;
27187;SDS011;14708;50.872;5.306;2023-07-30T00:10:25;1.88;;;1.73;;
27187;SDS011;14708;50.872;5.306;2023-07-30T00:12:51;3.40;;;2.15;;
27187;SDS011;14708;50.872;5.306;2023-07-30T00:15:17;3.60;;;1.90;;
27187;SDS011;14708;50.872;5.306;2023-07-30T00:17:42;2.03;;;1.70;;
27187;SDS011;14708;50.872;5.306;2023-07-30T00:20:08;3.50;;;2.03;;
27187;SDS011;14708;50.872;5.306;2023-07-30T00:22:34;2.40;;;1.90;;
27187;SDS011;14708;50.872;5.306;2023-07-30T00:25:00;2.83;;;1.90;;
27187;SDS011;14708;50.872;5.306;2023-07-30T00:27:25;2.80;;;1.98;;
27187;SDS011;14708;50.872;5.306;2023-07-30T00:29:51;2.40;;;2.00;;
27187;SDS011;14708;50.872;5.306;2023-07-30T00:32:16;2.58;;;1.85;;
27187;SDS011;14708;50.872;5.306;2023-07-30T00:34:43;2.92;;;1.60;;
27187;SDS011;14708;50.872;5.306;2023-07-30T00:37:09;1.95;;;1.80;;
27187;SDS011;14708;50.872;5.306;2023-07-30T00:39:34;2.60;;;2.03;;
27187;SDS011;14708;50.872;5.306;2023-07-30T00:42:00;2.47;;;1.65;;
27187;SDS011;14708;50.872;5.306;2023-07-30T00:44:26;3.00;;;2.13;;
27187;SDS011;14708;50.872;5.306;2023-07-30T00:46:52;2.20;;;2.00;;
27187;SDS011;14708;50.872;5.306;2023-07-30T00:49:18;2.97;;;1.85;;
27187;SDS011;14708;50.872;5.306;2023-07-30T00:51:44;2.30;;;1.92;;
27187;SDS011;14708;50.872;5.306;2023-07-30T00:54:10;2.78;;;2.00;;
27187;SDS011;14708;50.872;5.306;2023-07-30T00:56:36;2.08;;;1.58;;
27187;SDS011;14708;50.872;5.306;2023-07-30T00:59:03;2.65;;;2.10;;
27187;SDS011;14708;50.872;5.306;2023-07-30T01:01:29;2.42;;;1.80;;
27187;SDS011;14708;50.872;5.306;2023-07-30T01:03:59;2.67;;;2.00;;
27187;SDS011;14708;50.872;5.306;2023-07-30T01:06:24;3.78;;;2.35;;
27187;SDS011;14708;50.872;5.306;2023-07-30T01:08:50;3.20;;;2.33;;
27187;SDS011;14708;50.872;5.306;2023-07-30T01:11:16;2.15;;;1.95;;
27187;SDS011;14708;50.872;5.306;2023-07-30T01:13:43;2.47;;;2.03;;
27187;SDS011;14708;50.872;5.306;2023-07-30T01:16:09;2.92;;;1.63;;
27187;SDS011;14708;50.872;5.306;2023-07-30T01:18:35;2.40;;;1.98;;
27187;SDS011;14708;50.872;5.306;2023-07-30T01:21:01;3.13;;;1.90;;
27187;SDS011;14708;50.872;5.306;2023-07-30T01:23:26;2.65;;;1.80;;
27187;SDS011;14708;50.872;5.306;2023-07-30T01:25:58;2.08;;;1.77;;
27187;SDS011;14708;50.872;5.306;2023-07-30T01:28:29;3.92;;;2.00;;
27187;SDS011;14708;50.872;5.306;2023-07-30T01:31:00;2.20;;;1.80;;
27187;SDS011;14708;50.872;5.306;2023-07-30T01:33:28;3.13;;;2.10;;
27187;SDS011;14708;50.872;5.306;2023-07-30T01:35:55;3.92;;;2.22;;
27187;SDS011;14708;50.872;5.306;2023-07-30T01:38:22;3.03;;;2.10;;
27187;SDS011;14708;50.872;5.306;2023-07-30T01:40:48;2.42;;;2.10;;
27187;SDS011;14708;50.872;5.306;2023-07-30T01:43:14;2.25;;;1.90;;
27187;SDS011;14708;50.872;5.306;2023-07-30T01:45:40;2.88;;;2.05;;
27187;SDS011;14708;50.872;5.306;2023-07-30T01:48:06;5.55;;;2.25;;
27187;SDS011;14708;50.872;5.306;2023-07-30T01:50:31;3.10;;;1.83;;
27187;SDS011;14708;50.872;5.306;2023-07-30T01:52:57;2.92;;;2.03;;
27187;SDS011;14708;50.872;5.306;2023-07-30T01:55:23;3.80;;;2.40;;
27187;SDS011;14708;50.872;5.306;2023-07-30T01:57:48;2.25;;;2.00;;
27187;SDS011;14708;50.872;5.306;2023-07-30T02:00:14;2.33;;;1.90;;
27187;SDS011;14708;50.872;5.306;2023-07-30T02:02:40;2.47;;;1.80;;
27187;SDS011;14708;50.872;5.306;2023-07-30T02:05:05;3.22;;;1.90;;
27187;SDS011;14708;50.872;5.306;2023-07-30T02:07:31;4.43;;;1.98;;
27187;SDS011;14708;50.872;5.306;2023-07-30T02:09:56;3.10;;;1.98;;
27187;SDS011;14708;50.872;5.306;2023-07-30T02:12:22;2.50;;;2.00;;
27187;SDS011;14708;50.872;5.306;2023-07-30T02:14:48;2.08;;;1.85;;
27187;SDS011;14708;50.872;5.306;2023-07-30T02:17:13;3.08;;;2.17;;
27187;SDS011;14708;50.872;5.306;2023-07-30T02:19:39;2.78;;;1.90;;
27187;SDS011;14708;50.872;5.306;2023-07-30T02:22:04;1.98;;;1.77;;
27187;SDS011;14708;50.872;5.306;2023-07-30T02:24:30;2.90;;;2.00;;
27187;SDS011;14708;50.872;5.306;2023-07-30T02:26:56;2.63;;;2.15;;
27187;SDS011;14708;50.872;5.306;2023-07-30T02:29:21;2.70;;;1.90;;
27187;SDS011;14708;50.872;5.306;2023-07-30T02:31:47;2.60;;;1.70;;
27187;SDS011;14708;50.872;5.306;2023-07-30T02:34:13;3.45;;;1.85;;
27187;SDS011;14708;50.872;5.306;2023-07-30T02:36:38;5.22;;;2.00;;
27187;SDS011;14708;50.872;5.306;2023-07-30T02:39:04;2.17;;;1.92;;
27187;SDS011;14708;50.872;5.306;2023-07-30T02:41:29;2.60;;;1.80;;
27187;SDS011;14708;50.872;5.306;2023-07-30T02:43:55;3.50;;;1.80;;
27187;SDS011;14708;50.872;5.306;2023-07-30T02:46:21;3.60;;;2.10;;
27187;SDS011;14708;50.872;5.306;2023-07-30T02:48:46;2.47;;;1.80;;
27187;SDS011;14708;50.872;5.306;2023-07-30T02:51:12;3.92;;;2.00;;
27187;SDS011;14708;50.872;5.306;2023-07-30T02:53:37;2.03;;;1.70;;
27187;SDS011;14708;50.872;5.306;2023-07-30T02:56:03;3.90;;;1.95;;
27187;SDS011;14708;50.872;5.306;2023-07-30T02:58:28;2.03;;;1.73;;
27187;SDS011;14708;50.872;5.306;2023-07-30T03:00:54;2.67;;;1.55;;
27187;SDS011;14708;50.872;5.306;2023-07-30T03:03:20;2.20;;;1.60;;
27187;SDS011;14708;50.872;5.306;2023-07-30T03:05:46;2.65;;;2.08;;
27187;SDS011;14708;50.872;5.306;2023-07-30T03:08:11;3.03;;;1.92;;
27187;SDS011;14708;50.872;5.306;2023-07-30T03:10:38;2.17;;;1.92;;
27187;SDS011;14708;50.872;5.306;2023-07-30T03:13:03;3.22;;;2.00;;
27187;SDS011;14708;50.872;5.306;2023-07-30T03:15:29;4.78;;;1.98;;
27187;SDS011;14708;50.872;5.306;2023-07-30T03:17:55;3.65;;;2.05;;
27187;SDS011;14708;50.872;5.306;2023-07-30T03:20:20;2.85;;;1.90;;
27187;SDS011;14708;50.872;5.306;2023-07-30T03:22:46;3.05;;;1.75;;
27187;SDS011;14708;50.872;5.306;2023-07-30T03:25:11;2.45;;;1.75;;
27187;SDS011;14708;50.872;5.306;2023-07-30T03:27:39;4.45;;;1.65;;
27187;SDS011;14708;50.872;5.306;2023-07-30T03:30:05;3.15;;;2.22;;
27187;SDS011;14708;50.872;5.306;2023-07-30T03:32:31;3.70;;;2.10;;
27187;SDS011;14708;50.872;5.306;2023-07-30T03:34:57;3.13;;;1.95;;
27187;SDS011;14708;50.872;5.306;2023-07-30T03:37:22;2.38;;;1.58;;
27187;SDS011;14708;50.872;5.306;2023-07-30T03:39:48;2.30;;;2.00;;
27187;SDS011;14708;50.872;5.306;2023-07-30T03:42:14;3.38;;;1.70;;
27187;SDS011;14708;50.872;5.306;2023-07-30T03:44:39;2.88;;;1.80;;
27187;SDS011;14708;50.872;5.306;2023-07-30T03:47:05;3.42;;;2.03;;
27187;SDS011;14708;50.872;5.306;2023-07-30T03:49:30;3.03;;;1.92;;
27187;SDS011;14708;50.872;5.306;2023-07-30T03:51:56;2.03;;;1.70;;
27187;SDS011;14708;50.872;5.306;2023-07-30T03:54:22;3.58;;;1.88;;
27187;SDS011;14708;50.872;5.306;2023-07-30T03:56:47;2.92;;;1.63;;
27187;SDS011;14708;50.872;5.306;2023-07-30T03:59:13;2.88;;;1.95;;
27187;SDS011;14708;50.872;5.306;2023-07-30T04:01:38;2.63;;;1.67;;
27187;SDS011;14708;50.872;5.306;2023-07-30T04:04:04;2.90;;;1.65;;
27187;SDS011;14708;50.872;5.306;2023-07-30T04:06:30;2.35;;;1.73;;
27187;SDS011;14708;50.872;5.306;2023-07-30T04:08:55;5.20;;;2.40;;
27187;SDS011;14708;50.872;5.306;2023-07-30T04:11:21;2.65;;;2.00;;
27187;SDS011;14708;50.872;5.306;2023-07-30T04:13:46;2.08;;;1.60;;
27187;SDS011;14708;50.872;5.306;2023-07-30T04:16:12;1.83;;;1.70;;
27187;SDS011;14708;50.872;5.306;2023-07-30T04:18:38;4.45;;;1.73;;
27187;SDS011;14708;50.872;5.306;2023-07-30T04:21:03;2.80;;;1.65;;
27187;SDS011;14708;50.872;5.306;2023-07-30T04:23:29;2.63;;;1.88;;
27187;SDS011;14708;50.872;5.306;2023-07-30T04:25:54;2.20;;;1.85;;
27187;SDS011;14708;50.872;5.306;2023-07-30T04:28:20;2.45;;;1.92;;
27187;SDS011;14708;50.872;5.306;2023-07-30T04:30:45;1.67;;;1.58;;
27187;SDS011;14708;50.872;5.306;2023-07-30T04:33:12;2.63;;;1.70;;
27187;SDS011;14708;50.872;5.306;2023-07-30T04:35:39;2.53;;;1.85;;
27187;SDS011;14708;50.872;5.306;2023-07-30T04:38:05;1.83;;;1.60;;
27187;SDS011;14708;50.872;5.306;2023-07-30T04:40:31;2.75;;;1.90;;
27187;SDS011;14708;50.872;5.306;2023-07-30T04:42:57;3.17;;;2.20;;
27187;SDS011;14708;50.872;5.306;2023-07-30T04:45:22;2.53;;;1.60;;
27187;SDS011;14708;50.872;5.306;2023-07-30T04:47:48;2.40;;;1.80;;
27187;SDS011;14708;50.872;5.306;2023-07-30T04:50:13;2.20;;;1.58;;
27187;SDS011;14708;50.872;5.306;2023-07-30T04:52:39;2.40;;;2.13;;
27187;SDS011;14708;50.872;5.306;2023-07-30T04:55:05;2.03;;;1.50;;
27187;SDS011;14708;50.872;5.306;2023-07-30T04:57:31;2.60;;;1.88;;
27187;SDS011;14708;50.872;5.306;2023-07-30T04:59:56;3.53;;;1.95;;
27187;SDS011;14708;50.872;5.306;2023-07-30T05:02:22;1.92;;;1.67;;
27187;SDS011;14708;50.872;5.306;2023-07-30T05:04:48;2.72;;;1.70;;
27187;SDS011;14708;50.872;5.306;2023-07-30T05:07:13;3.10;;;1.92;;
27187;SDS011;14708;50.872;5.306;2023-07-30T05:09:39;2.05;;;1.70;;
27187;SDS011;14708;50.872;5.306;2023-07-30T05:12:04;2.17;;;1.40;;
27187;SDS011;14708;50.872;5.306;2023-07-30T05:14:30;2.83;;;1.60;;
27187;SDS011;14708;50.872;5.306;2023-07-30T05:16:56;2.42;;;1.70;;
27187;SDS011;14708;50.872;5.306;2023-07-30T05:19:21;3.80;;;1.90;;
27187;SDS011;14708;50.872;5.306;2023-07-30T05:21:47;2.28;;;1.73;;
27187;SDS011;14708;50.872;5.306;2023-07-30T05:24:13;1.67;;;1.40;;
27187;SDS011;14708;50.872;5.306;2023-07-30T05:26:38;2.08;;;1.63;;
27187;SDS011;14708;50.872;5.306;2023-07-30T05:29:04;2.05;;;1.40;;
27187;SDS011;14708;50.872;5.306;2023-07-30T05:31:30;2.50;;;1.52;;
27187;SDS011;14708;50.872;5.306;2023-07-30T05:33:55;2.00;;;1.50;;
27187;SDS011;14708;50.872;5.306;2023-07-30T05:36:21;1.52;;;1.30;;
27187;SDS011;14708;50.872;5.306;2023-07-30T05:38:46;2.92;;;1.65;;
27187;SDS011;14708;50.872;5.306;2023-07-30T05:41:12;1.83;;;1.70;;
27187;SDS011;14708;50.872;5.306;2023-07-30T05:43:38;2.15;;;1.77;;
27187;SDS011;14708;50.872;5.306;2023-07-30T05:46:03;2.95;;;1.77;;
27187;SDS011;14708;50.872;5.306;2023-07-30T05:48:29;2.08;;;1.60;;
27187;SDS011;14708;50.872;5.306;2023-07-30T05:50:54;3.83;;;1.70;;
27187;SDS011;14708;50.872;5.306;2023-07-30T05:53:20;1.58;;;1.33;;
27187;SDS011;14708;50.872;5.306;2023-07-30T05:55:46;3.55;;;2.10;;
27187;SDS011;14708;50.872;5.306;2023-07-30T05:58:11;2.33;;;1.35;;
27187;SDS011;14708;50.872;5.306;2023-07-30T06:00:37;3.72;;;1.30;;
27187;SDS011;14708;50.872;5.306;2023-07-30T06:03:02;2.92;;;1.52;;
27187;SDS011;14708;50.872;5.306;2023-07-30T06:05:28;4.28;;;1.88;;
27187;SDS011;14708;50.872;5.306;2023-07-30T06:07:54;3.05;;;1.58;;
27187;SDS011;14708;50.872;5.306;2023-07-30T06:10:20;3.67;;;1.73;;
27187;SDS011;14708;50.872;5.306;2023-07-30T06:12:45;6.53;;;2.10;;
27187;SDS011;14708;50.872;5.306;2023-07-30T06:15:11;5.13;;;1.70;;
27187;SDS011;14708;50.872;5.306;2023-07-30T06:17:37;6.18;;;1.75;;
27187;SDS011;14708;50.872;5.306;2023-07-30T06:20:03;2.75;;;1.60;;
27187;SDS011;14708;50.872;5.306;2023-07-30T06:22:28;7.82;;;2.00;;
27187;SDS011;14708;50.872;5.306;2023-07-30T06:24:54;9.18;;;2.10;;
27187;SDS011;14708;50.872;5.306;2023-07-30T06:27:20;4.97;;;2.20;;
27187;SDS011;14708;50.872;5.306;2023-07-30T06:29:45;5.30;;;2.03;;
27187;SDS011;14708;50.872;5.306;2023-07-30T06:32:12;7.03;;;2.13;;
27187;SDS011;14708;50.872;5.306;2023-07-30T06:34:37;7.22;;;1.90;;
27187;SDS011;14708;50.872;5.306;2023-07-30T06:37:03;6.20;;;1.80;;
27187;SDS011;14708;50.872;5.306;2023-07-30T06:39:29;7.57;;;1.80;;
27187;SDS011;14708;50.872;5.306;2023-07-30T06:41:54;4.85;;;1.90;;
27187;SDS011;14708;50.872;5.306;2023-07-30T06:44:20;11.52;;;2.35;;
27187;SDS011;14708;50.872;5.306;2023-07-30T06:46:46;8.43;;;2.35;;
27187;SDS011;14708;50.872;5.306;2023-07-30T06:49:11;5.20;;;1.85;;
27187;SDS011;14708;50.872;5.306;2023-07-30T06:51:40;8.07;;;2.00;;
27187;SDS011;14708;50.872;5.306;2023-07-30T06:54:08;6.00;;;1.83;;
27187;SDS011;14708;50.872;5.306;2023-07-30T06:56:33;6.38;;;1.98;;
27187;SDS011;14708;50.872;5.306;2023-07-30T06:59:15;5.80;;;1.70;;
27187;SDS011;14708;50.872;5.306;2023-07-30T07:01:42;8.63;;;2.00;;
27187;SDS011;14708;50.872;5.306;2023-07-30T07:04:08;6.03;;;2.17;;
27187;SDS011;14708;50.872;5.306;2023-07-30T07:06:39;13.27;;;2.97;;
27187;SDS011;14708;50.872;5.306;2023-07-30T07:09:17;63.63;;;10.90;;
27187;SDS011;14708;50.872;5.306;2023-07-30T07:11:43;71.18;;;15.05;;
27187;SDS011;14708;50.872;5.306;2023-07-30T07:14:08;63.08;;;14.20;;
27187;SDS011;14708;50.872;5.306;2023-07-30T07:16:34;62.88;;;12.32;;
27187;SDS011;14708;50.872;5.306;2023-07-30T07:19:00;49.97;;;11.10;;
27187;SDS011;14708;50.872;5.306;2023-07-30T07:21:30;46.50;;;9.35;;
27187;SDS011;14708;50.872;5.306;2023-07-30T07:24:40;37.70;;;9.55;;
27187;SDS011;14708;50.872;5.306;2023-07-30T07:30:27;33.55;;;7.50;;
27187;SDS011;14708;50.872;5.306;2023-07-30T07:33:28;31.25;;;7.00;;
27187;SDS011;14708;50.872;5.306;2023-07-30T07:36:04;35.97;;;8.02;;
27187;SDS011;14708;50.872;5.306;2023-07-30T07:38:31;26.17;;;6.60;;
27187;SDS011;14708;50.872;5.306;2023-07-30T07:41:02;22.17;;;5.07;;
27187;SDS011;14708;50.872;5.306;2023-07-30T07:43:54;23.45;;;5.78;;
27187;SDS011;14708;50.872;5.306;2023-07-30T07:46:24;26.25;;;6.00;;
27187;SDS011;14708;50.872;5.306;2023-07-30T07:48:52;22.10;;;5.32;;
27187;SDS011;14708;50.872;5.306;2023-07-30T07:51:18;27.35;;;4.45;;
27187;SDS011;14708;50.872;5.306;2023-07-30T07:53:44;19.75;;;4.85;;
27187;SDS011;14708;50.872;5.306;2023-07-30T07:56:09;16.38;;;4.60;;
27187;SDS011;14708;50.872;5.306;2023-07-30T07:58:35;13.65;;;4.07;;
27187;SDS011;14708;50.872;5.306;2023-07-30T08:01:01;16.13;;;4.63;;
27187;SDS011;14708;50.872;5.306;2023-07-30T08:03:27;12.35;;;3.45;;
27187;SDS011;14708;50.872;5.306;2023-07-30T08:05:52;10.13;;;2.90;;
27187;SDS011;14708;50.872;5.306;2023-07-30T08:08:18;14.25;;;3.33;;
27187;SDS011;14708;50.872;5.306;2023-07-30T08:10:44;11.38;;;3.20;;
27187;SDS011;14708;50.872;5.306;2023-07-30T08:13:12;11.30;;;3.05;;
27187;SDS011;14708;50.872;5.306;2023-07-30T08:18:06;16.92;;;3.22;;
27187;SDS011;14708;50.872;5.306;2023-07-30T08:20:32;9.18;;;2.88;;
27187;SDS011;14708;50.872;5.306;2023-07-30T08:22:57;10.43;;;2.83;;
27187;SDS011;14708;50.872;5.306;2023-07-30T08:25:23;12.05;;;2.95;;
27187;SDS011;14708;50.872;5.306;2023-07-30T08:27:49;10.27;;;3.13;;
27187;SDS011;14708;50.872;5.306;2023-07-30T08:30:14;15.48;;;3.15;;
27187;SDS011;14708;50.872;5.306;2023-07-30T08:32:40;12.85;;;3.40;;
27187;SDS011;14708;50.872;5.306;2023-07-30T08:35:08;12.70;;;3.22;;
27187;SDS011;14708;50.872;5.306;2023-07-30T08:37:34;16.13;;;3.63;;
27187;SDS011;14708;50.872;5.306;2023-07-30T08:40:00;12.75;;;3.08;;
27187;SDS011;14708;50.872;5.306;2023-07-30T08:42:25;14.05;;;3.10;;
27187;SDS011;14708;50.872;5.306;2023-07-30T08:44:51;9.98;;;2.63;;
27187;SDS011;14708;50.872;5.306;2023-07-30T08:47:16;8.82;;;2.83;;
27187;SDS011;14708;50.872;5.306;2023-07-30T08:49:42;14.02;;;3.15;;
27187;SDS011;14708;50.872;5.306;2023-07-30T08:52:08;8.95;;;2.58;;
27187;SDS011;14708;50.872;5.306;2023-07-30T08:54:36;13.68;;;3.45;;
27187;SDS011;14708;50.872;5.306;2023-07-30T08:57:02;12.50;;;2.92;;
27187;SDS011;14708;50.872;5.306;2023-07-30T08:59:33;9.73;;;2.83;;
27187;SDS011;14708;50.872;5.306;2023-07-30T09:02:13;8.82;;;2.65;;
27187;SDS011;14708;50.872;5.306;2023-07-30T09:04:48;11.68;;;3.17;;
27187;SDS011;14708;50.872;5.306;2023-07-30T09:07:18;10.75;;;2.67;;
27187;SDS011;14708;50.872;5.306;2023-07-30T09:09:44;12.00;;;3.05;;
27187;SDS011;14708;50.872;5.306;2023-07-30T09:12:14;14.45;;;3.35;;
27187;SDS011;14708;50.872;5.306;2023-07-30T09:14:40;12.43;;;3.03;;
27187;SDS011;14708;50.872;5.306;2023-07-30T09:17:09;15.13;;;3.10;;
27187;SDS011;14708;50.872;5.306;2023-07-30T09:19:36;15.82;;;3.05;;
27187;SDS011;14708;50.872;5.306;2023-07-30T09:22:05;15.82;;;2.83;;
27187;SDS011;14708;50.872;5.306;2023-07-30T09:24:32;14.05;;;3.63;;
27187;SDS011;14708;50.872;5.306;2023-07-30T09:26:57;12.20;;;3.42;;
27187;SDS011;14708;50.872;5.306;2023-07-30T09:31:53;18.80;;;4.93;;
27187;SDS011;14708;50.872;5.306;2023-07-30T09:34:21;19.08;;;5.53;;
27187;SDS011;14708;50.872;5.306;2023-07-30T09:36:49;13.32;;;3.33;;
27187;SDS011;14708;50.872;5.306;2023-07-30T09:41:42;12.40;;;3.80;;
27187;SDS011;14708;50.872;5.306;2023-07-30T09:44:08;19.25;;;4.55;;
27187;SDS011;14708;50.872;5.306;2023-07-30T09:46:41;14.98;;;4.95;;
27187;SDS011;14708;50.872;5.306;2023-07-30T09:49:08;11.85;;;3.67;;
27187;SDS011;14708;50.872;5.306;2023-07-30T09:51:35;14.02;;;3.90;;
27187;SDS011;14708;50.872;5.306;2023-07-30T09:54:06;15.75;;;3.13;;
27187;SDS011;14708;50.872;5.306;2023-07-30T09:56:32;9.57;;;2.58;;
27187;SDS011;14708;50.872;5.306;2023-07-30T09:58:59;10.65;;;2.70;;
27187;SDS011;14708;50.872;5.306;2023-07-30T10:01:24;9.80;;;2.53;;
27187;SDS011;14708;50.872;5.306;2023-07-30T10:03:53;14.35;;;3.30;;
27187;SDS011;14708;50.872;5.306;2023-07-30T10:08:48;9.93;;;2.50;;
27187;SDS011;14708;50.872;5.306;2023-07-30T10:11:19;11.85;;;3.15;;
27187;SDS011;14708;50.872;5.306;2023-07-30T10:13:45;8.05;;;2.88;;
27187;SDS011;14708;50.872;5.306;2023-07-30T10:16:11;8.70;;;2.40;;
27187;SDS011;14708;50.872;5.306;2023-07-30T10:18:38;8.90;;;3.10;;
27187;SDS011;14708;50.872;5.306;2023-07-30T10:21:05;7.63;;;2.40;;
27187;SDS011;14708;50.872;5.306;2023-07-30T10:26:01;6.90;;;2.17;;
27187;SDS011;14708;50.872;5.306;2023-07-30T10:28:35;9.50;;;2.95;;
27187;SDS011;14708;50.872;5.306;2023-07-30T10:31:07;7.77;;;2.23;;
27187;SDS011;14708;50.872;5.306;2023-07-30T10:36:14;11.00;;;3.13;;
27187;SDS011;14708;50.872;5.306;2023-07-30T10:39:00;7.57;;;2.00;;
27187;SDS011;14708;50.872;5.306;2023-07-30T10:41:42;8.18;;;2.75;;
27187;SDS011;14708;50.872;5.306;2023-07-30T10:44:16;7.47;;;2.40;;
27187;SDS011;14708;50.872;5.306;2023-07-30T10:46:44;17.00;;;3.10;;
27187;SDS011;14708;50.872;5.306;2023-07-30T10:49:10;6.82;;;2.50;;
27187;SDS011;14708;50.872;5.306;2023-07-30T10:51:37;9.00;;;2.47;;
27187;SDS011;14708;50.872;5.306;2023-07-30T10:54:05;8.02;;;2.05;;
27187;SDS011;14708;50.872;5.306;2023-07-30T10:56:34;7.45;;;2.53;;
27187;SDS011;14708;50.872;5.306;2023-07-30T10:59:02;9.50;;;2.33;;
27187;SDS011;14708;50.872;5.306;2023-07-30T11:01:30;7.97;;;2.50;;
27187;SDS011;14708;50.872;5.306;2023-07-30T11:03:56;8.27;;;2.35;;
27187;SDS011;14708;50.872;5.306;2023-07-30T11:06:25;10.98;;;2.50;;
27187;SDS011;14708;50.872;5.306;2023-07-30T11:08:52;10.00;;;2.63;;
27187;SDS011;14708;50.872;5.306;2023-07-30T11:11:18;8.48;;;2.35;;
27187;SDS011;14708;50.872;5.306;2023-07-30T11:13:44;4.45;;;2.08;;
27187;SDS011;14708;50.872;5.306;2023-07-30T11:16:14;6.53;;;2.22;;
27187;SDS011;14708;50.872;5.306;2023-07-30T11:18:41;7.10;;;2.08;;
27187;SDS011;14708;50.872;5.306;2023-07-30T11:21:10;7.68;;;2.72;;
27187;SDS011;14708;50.872;5.306;2023-07-30T11:23:40;5.95;;;1.83;;
27187;SDS011;14708;50.872;5.306;2023-07-30T11:26:12;5.35;;;2.05;;
27187;SDS011;14708;50.872;5.306;2023-07-30T11:28:43;7.47;;;2.00;;
27187;SDS011;14708;50.872;5.306;2023-07-30T11:31:15;5.50;;;2.28;;
27187;SDS011;14708;50.872;5.306;2023-07-30T11:33:44;5.28;;;2.03;;
27187;SDS011;14708;50.872;5.306;2023-07-30T11:36:12;8.27;;;2.25;;
27187;SDS011;14708;50.872;5.306;2023-07-30T11:38:49;8.15;;;2.50;;
27187;SDS011;14708;50.872;5.306;2023-07-30T11:41:18;5.18;;;2.40;;
27187;SDS011;14708;50.872;5.306;2023-07-30T11:43:44;5.45;;;2.08;;
27187;SDS011;14708;50.872;5.306;2023-07-30T11:46:13;7.10;;;2.70;;
27187;SDS011;14708;50.872;5.306;2023-07-30T11:48:45;7.32;;;2.30;;
27187;SDS011;14708;50.872;5.306;2023-07-30T11:51:21;8.60;;;2.30;;
27187;SDS011;14708;50.872;5.306;2023-07-30T11:56:17;5.47;;;1.83;;
27187;SDS011;14708;50.872;5.306;2023-07-30T11:58:43;7.22;;;2.53;;
27187;SDS011;14708;50.872;5.306;2023-07-30T12:01:10;10.43;;;2.20;;
27187;SDS011;14708;50.872;5.306;2023-07-30T12:03:37;6.65;;;2.28;;
27187;SDS011;14708;50.872;5.306;2023-07-30T12:06:06;6.35;;;2.50;;
27187;SDS011;14708;50.872;5.306;2023-07-30T12:08:33;7.60;;;2.35;;
27187;SDS011;14708;50.872;5.306;2023-07-30T12:11:04;6.90;;;2.50;;
27187;SDS011;14708;50.872;5.306;2023-07-30T12:13:30;5.85;;;1.92;;
27187;SDS011;14708;50.872;5.306;2023-07-30T12:15:56;8.10;;;2.58;;
27187;SDS011;14708;50.872;5.306;2023-07-30T12:18:23;5.38;;;2.30;;
27187;SDS011;14708;50.872;5.306;2023-07-30T12:20:49;8.13;;;2.22;;
27187;SDS011;14708;50.872;5.306;2023-07-30T12:23:18;7.70;;;2.63;;
27187;SDS011;14708;50.872;5.306;2023-07-30T12:25:45;4.97;;;2.05;;
27187;SDS011;14708;50.872;5.306;2023-07-30T12:28:11;5.68;;;2.47;;
27187;SDS011;14708;50.872;5.306;2023-07-30T12:30:40;4.43;;;1.92;;
27187;SDS011;14708;50.872;5.306;2023-07-30T12:33:06;7.22;;;2.53;;
27187;SDS011;14708;50.872;5.306;2023-07-30T12:35:32;4.95;;;1.92;;
27187;SDS011;14708;50.872;5.306;2023-07-30T12:37:58;4.43;;;2.13;;
27187;SDS011;14708;50.872;5.306;2023-07-30T12:40:25;6.47;;;2.38;;
27187;SDS011;14708;50.872;5.306;2023-07-30T12:42:51;5.30;;;2.33;;
27187;SDS011;14708;50.872;5.306;2023-07-30T12:45:17;5.65;;;1.90;;
27187;SDS011;14708;50.872;5.306;2023-07-30T12:47:43;5.90;;;2.05;;
27187;SDS011;14708;50.872;5.306;2023-07-30T12:50:10;5.03;;;1.80;;
27187;SDS011;14708;50.872;5.306;2023-07-30T12:52:36;8.50;;;2.70;;
27187;SDS011;14708;50.872;5.306;2023-07-30T12:55:01;5.75;;;2.10;;
27187;SDS011;14708;50.872;5.306;2023-07-30T12:57:29;5.60;;;2.05;;
27187;SDS011;14708;50.872;5.306;2023-07-30T12:59:55;4.93;;;2.05;;
27187;SDS011;14708;50.872;5.306;2023-07-30T13:02:21;5.32;;;2.13;;
27187;SDS011;14708;50.872;5.306;2023-07-30T13:04:47;5.05;;;2.13;;
27187;SDS011;14708;50.872;5.306;2023-07-30T13:07:12;6.13;;;2.05;;
27187;SDS011;14708;50.872;5.306;2023-07-30T13:09:38;6.32;;;2.55;;
27187;SDS011;14708;50.872;5.306;2023-07-30T13:12:04;3.95;;;2.03;;
27187;SDS011;14708;50.872;5.306;2023-07-30T13:14:30;4.65;;;2.33;;
27187;SDS011;14708;50.872;5.306;2023-07-30T13:16:56;6.50;;;1.98;;
27187;SDS011;14708;50.872;5.306;2023-07-30T13:19:21;7.53;;;2.13;;
27187;SDS011;14708;50.872;5.306;2023-07-30T13:21:47;5.32;;;1.98;;
27187;SDS011;14708;50.872;5.306;2023-07-30T13:24:13;6.43;;;2.33;;
27187;SDS011;14708;50.872;5.306;2023-07-30T13:26:38;6.68;;;2.28;;
27187;SDS011;14708;50.872;5.306;2023-07-30T13:29:04;6.75;;;2.50;;
27187;SDS011;14708;50.872;5.306;2023-07-30T13:31:29;4.78;;;2.28;;
27187;SDS011;14708;50.872;5.306;2023-07-30T13:33:55;7.72;;;2.20;;
27187;SDS011;14708;50.872;5.306;2023-07-30T13:36:21;8.50;;;2.50;;
27187;SDS011;14708;50.872;5.306;2023-07-30T13:38:47;5.75;;;1.70;;
27187;SDS011;14708;50.872;5.306;2023-07-30T13:41:13;4.10;;;1.83;;
27187;SDS011;14708;50.872;5.306;2023-07-30T13:43:39;7.75;;;2.20;;
27187;SDS011;14708;50.872;5.306;2023-07-30T13:46:04;8.02;;;2.10;;
27187;SDS011;14708;50.872;5.306;2023-07-30T13:48:30;5.00;;;2.13;;
27187;SDS011;14708;50.872;5.306;2023-07-30T13:50:56;4.93;;;1.90;;
27187;SDS011;14708;50.872;5.306;2023-07-30T13:53:22;4.03;;;1.88;;
27187;SDS011;14708;50.872;5.306;2023-07-30T13:55:48;5.53;;;1.70;;
27187;SDS011;14708;50.872;5.306;2023-07-30T13:58:14;3.45;;;1.55;;
27187;SDS011;14708;50.872;5.306;2023-07-30T14:00:42;5.88;;;1.90;;
27187;SDS011;14708;50.872;5.306;2023-07-30T14:03:08;4.72;;;1.90;;
27187;SDS011;14708;50.872;5.306;2023-07-30T14:05:34;8.13;;;2.05;;
27187;SDS011;14708;50.872;5.306;2023-07-30T14:08:00;6.40;;;2.22;;
27187;SDS011;14708;50.872;5.306;2023-07-30T14:10:25;7.53;;;2.33;;
27187;SDS011;14708;50.872;5.306;2023-07-30T14:12:53;5.63;;;1.90;;
27187;SDS011;14708;50.872;5.306;2023-07-30T14:15:19;4.15;;;2.00;;
27187;SDS011;14708;50.872;5.306;2023-07-30T14:17:45;10.05;;;2.10;;
27187;SDS011;14708;50.872;5.306;2023-07-30T14:20:10;8.32;;;2.78;;
27187;SDS011;14708;50.872;5.306;2023-07-30T14:22:36;4.05;;;1.70;;
27187;SDS011;14708;50.872;5.306;2023-07-30T14:25:02;9.93;;;2.00;;
27187;SDS011;14708;50.872;5.306;2023-07-30T14:27:28;6.97;;;2.08;;
27187;SDS011;14708;50.872;5.306;2023-07-30T14:29:54;5.80;;;2.03;;
27187;SDS011;14708;50.872;5.306;2023-07-30T14:32:20;5.25;;;2.30;;
27187;SDS011;14708;50.872;5.306;2023-07-30T14:34:46;5.97;;;2.05;;
27187;SDS011;14708;50.872;5.306;2023-07-30T14:37:11;4.70;;;1.58;;
27187;SDS011;14708;50.872;5.306;2023-07-30T14:39:37;7.43;;;2.05;;
27187;SDS011;14708;50.872;5.306;2023-07-30T14:42:03;5.38;;;1.50;;
27187;SDS011;14708;50.872;5.306;2023-07-30T14:44:29;5.00;;;1.92;;
27187;SDS011;14708;50.872;5.306;2023-07-30T14:46:54;4.40;;;1.98;;
27187;SDS011;14708;50.872;5.306;2023-07-30T14:49:22;5.65;;;1.90;;
27187;SDS011;14708;50.872;5.306;2023-07-30T14:51:47;5.82;;;1.70;;
27187;SDS011;14708;50.872;5.306;2023-07-30T14:54:13;6.38;;;1.92;;
27187;SDS011;14708;50.872;5.306;2023-07-30T14:56:38;6.30;;;1.83;;
27187;SDS011;14708;50.872;5.306;2023-07-30T14:59:04;5.90;;;1.70;;
27187;SDS011;14708;50.872;5.306;2023-07-30T15:01:30;5.57;;;2.38;;
27187;SDS011;14708;50.872;5.306;2023-07-30T15:03:56;5.53;;;2.28;;